George/Botha, South Africa

12:02 AM SAST on March 31, 2017 (GMT +0200)
Heatherpark | | Change Station

Elev 758 ft 33.95 °S, 22.43 °E | Updated 59 minutes ago

Clear
Clear
60.6 °F
Feels Like 60.6 °F
N
0.7
Wind Variable Wind from North
Gusts 1.6 mph

Today
High -- | Low -- °F
--% Chance of Precip.
Yesterday
High -- | Low -- °F
Precip. -- in
Pressure 29.95 in
Visibility 6.2 miles
Clouds
Dew Point 56 °F
Humidity 84%
Rainfall --
Snow Depth Not available.
6:42 AM 6:26 PM
Waxing Crescent, 11% visible
METAR FAGG 302000Z AUTO VRB02KT 9999 R29///// // NSC 16/13 Q1014
Pressure 29.95 in
Visibility 6.2 miles
Clouds
Dew Point 56 °F
Humidity 84%
Rainfall --
Snow Depth Not available.
6:42 AM 6:26 PM
Waxing Crescent, 11% visible
METAR FAGG 302000Z AUTO VRB02KT 9999 R29///// // NSC 16/13 Q1014

Get Severe Weather Alerts

Thanks for signing up!

Be on the lookout for a verification email in your inbox.

You'll start receiving the daily forecast at 8 AM.

×

10-Day Weather Forecast

No radar image for this location.
×

Almanac

Astronomy

Mar. 31, 2017 Rise Set
Actual Time
Civil Twilight
Nautical Twilight
Astronomical Twilight
Moon
Length of Visible Light
Length of Day
Tomorrow will be .
, % of the Moon is Illuminated

Today's Extremes

Country Highs Country Lows

Community

WunderPhotos

Upload Photos

1,962,540 photos uploaded!

WunderBlog® & News

Nearby

Air Quality

  Air Quality AQ Index Pollutant
Not available.

Snow Depth

Station Depth Elevation

Earthquake Activity

City Distance Mag. Time & Date
Minimum magnitude displayed is 2.5.

Earthquake Activity

City Distance Mag. Time & Date
Minimum magnitude displayed is 2.5.

Coastal Water Temperatures

Place Temperature

Stations

Nearby Weather Stations

Station Location Temp. Windchill Dew Point Humidity Wind Precip. Elev Updated Type